sensor_id;sensor_type;location;lat;lon;timestamp;P1;durP1;ratioP1;P2;durP2;ratioP2
72275;SDS011;61204;49.980;8.358;2023-10-19T00:01:55;14.43;;;7.47;;
72275;SDS011;61204;49.980;8.358;2023-10-19T00:04:24;12.70;;;7.40;;
72275;SDS011;61204;49.980;8.358;2023-10-19T00:06:51;16.80;;;7.78;;
72275;SDS011;61204;49.980;8.358;2023-10-19T00:09:20;12.68;;;8.23;;
72275;SDS011;61204;49.980;8.358;2023-10-19T00:11:46;11.88;;;8.52;;
72275;SDS011;61204;49.980;8.358;2023-10-19T00:14:12;12.98;;;7.90;;
72275;SDS011;61204;49.980;8.358;2023-10-19T00:16:42;11.48;;;7.65;;
72275;SDS011;61204;49.980;8.358;2023-10-19T00:19:35;13.45;;;8.75;;
72275;SDS011;61204;49.980;8.358;2023-10-19T00:22:04;16.05;;;8.70;;
72275;SDS011;61204;49.980;8.358;2023-10-19T00:24:34;16.73;;;7.82;;
72275;SDS011;61204;49.980;8.358;2023-10-19T00:27:00;18.30;;;9.32;;
72275;SDS011;61204;49.980;8.358;2023-10-19T00:29:41;18.63;;;9.25;;
72275;SDS011;61204;49.980;8.358;2023-10-19T00:32:13;16.52;;;9.05;;
72275;SDS011;61204;49.980;8.358;2023-10-19T00:34:39;16.65;;;9.52;;
72275;SDS011;61204;49.980;8.358;2023-10-19T00:37:05;18.35;;;9.40;;
72275;SDS011;61204;49.980;8.358;2023-10-19T00:39:34;15.48;;;9.70;;
72275;SDS011;61204;49.980;8.358;2023-10-19T00:42:08;17.33;;;9.50;;
72275;SDS011;61204;49.980;8.358;2023-10-19T00:44:34;14.52;;;9.18;;
72275;SDS011;61204;49.980;8.358;2023-10-19T00:47:07;16.60;;;9.27;;
72275;SDS011;61204;49.980;8.358;2023-10-19T00:49:38;17.98;;;10.32;;
72275;SDS011;61204;49.980;8.358;2023-10-19T00:52:04;18.90;;;10.57;;
72275;SDS011;61204;49.980;8.358;2023-10-19T00:54:45;18.42;;;9.38;;
72275;SDS011;61204;49.980;8.358;2023-10-19T00:57:16;13.50;;;9.07;;
72275;SDS011;61204;49.980;8.358;2023-10-19T00:59:57;15.25;;;9.02;;
72275;SDS011;61204;49.980;8.358;2023-10-19T01:02:45;19.15;;;10.30;;
72275;SDS011;61204;49.980;8.358;2023-10-19T01:05:17;17.73;;;9.48;;
72275;SDS011;61204;49.980;8.358;2023-10-19T01:07:47;16.25;;;9.77;;
72275;SDS011;61204;49.980;8.358;2023-10-19T01:10:21;17.23;;;10.02;;
72275;SDS011;61204;49.980;8.358;2023-10-19T01:12:49;18.08;;;9.90;;
72275;SDS011;61204;49.980;8.358;2023-10-19T01:15:18;18.73;;;11.05;;
72275;SDS011;61204;49.980;8.358;2023-10-19T01:17:53;16.05;;;8.90;;
72275;SDS011;61204;49.980;8.358;2023-10-19T01:20:26;15.68;;;9.13;;
72275;SDS011;61204;49.980;8.358;2023-10-19T01:23:06;16.88;;;9.77;;
72275;SDS011;61204;49.980;8.358;2023-10-19T01:28:30;20.75;;;10.23;;
72275;SDS011;61204;49.980;8.358;2023-10-19T01:31:20;19.65;;;11.02;;
72275;SDS011;61204;49.980;8.358;2023-10-19T01:33:52;18.95;;;9.98;;
72275;SDS011;61204;49.980;8.358;2023-10-19T01:36:31;19.67;;;10.48;;
72275;SDS011;61204;49.980;8.358;2023-10-19T01:39:08;21.08;;;11.00;;
72275;SDS011;61204;49.980;8.358;2023-10-19T01:41:37;19.08;;;10.10;;
72275;SDS011;61204;49.980;8.358;2023-10-19T01:44:06;16.90;;;9.48;;
72275;SDS011;61204;49.980;8.358;2023-10-19T01:46:32;16.95;;;9.60;;
72275;SDS011;61204;49.980;8.358;2023-10-19T01:49:00;22.38;;;10.32;;
72275;SDS011;61204;49.980;8.358;2023-10-19T01:51:30;18.02;;;9.57;;
72275;SDS011;61204;49.980;8.358;2023-10-19T01:54:03;16.33;;;9.95;;
72275;SDS011;61204;49.980;8.358;2023-10-19T01:56:31;21.95;;;11.45;;
72275;SDS011;61204;49.980;8.358;2023-10-19T01:59:00;18.27;;;10.52;;
72275;SDS011;61204;49.980;8.358;2023-10-19T02:01:29;18.05;;;9.32;;
72275;SDS011;61204;49.980;8.358;2023-10-19T02:03:57;18.05;;;10.55;;
72275;SDS011;61204;49.980;8.358;2023-10-19T02:06:34;20.20;;;10.48;;
72275;SDS011;61204;49.980;8.358;2023-10-19T02:09:04;19.33;;;10.55;;
72275;SDS011;61204;49.980;8.358;2023-10-19T02:11:48;16.75;;;10.05;;
72275;SDS011;61204;49.980;8.358;2023-10-19T02:14:24;20.52;;;11.15;;
72275;SDS011;61204;49.980;8.358;2023-10-19T02:16:56;17.85;;;10.85;;
72275;SDS011;61204;49.980;8.358;2023-10-19T02:19:25;19.30;;;10.95;;
72275;SDS011;61204;49.980;8.358;2023-10-19T02:21:54;23.73;;;12.60;;
72275;SDS011;61204;49.980;8.358;2023-10-19T02:24:28;20.50;;;10.85;;
72275;SDS011;61204;49.980;8.358;2023-10-19T02:26:55;21.45;;;11.30;;
72275;SDS011;61204;49.980;8.358;2023-10-19T02:29:26;22.67;;;11.98;;
72275;SDS011;61204;49.980;8.358;2023-10-19T02:31:51;20.80;;;11.98;;
72275;SDS011;61204;49.980;8.358;2023-10-19T02:34:19;19.75;;;11.02;;
72275;SDS011;61204;49.980;8.358;2023-10-19T02:36:45;21.58;;;11.95;;
72275;SDS011;61204;49.980;8.358;2023-10-19T02:39:13;19.77;;;12.15;;
72275;SDS011;61204;49.980;8.358;2023-10-19T02:41:44;20.27;;;10.60;;
72275;SDS011;61204;49.980;8.358;2023-10-19T02:46:44;21.33;;;11.90;;
72275;SDS011;61204;49.980;8.358;2023-10-19T02:49:33;23.73;;;12.45;;
72275;SDS011;61204;49.980;8.358;2023-10-19T02:52:03;23.08;;;12.20;;
72275;SDS011;61204;49.980;8.358;2023-10-19T02:54:29;19.40;;;11.07;;
72275;SDS011;61204;49.980;8.358;2023-10-19T02:56:59;24.75;;;12.65;;
72275;SDS011;61204;49.980;8.358;2023-10-19T02:59:26;21.60;;;11.27;;
72275;SDS011;61204;49.980;8.358;2023-10-19T03:01:57;21.98;;;12.07;;
72275;SDS011;61204;49.980;8.358;2023-10-19T03:04:37;19.75;;;11.98;;
72275;SDS011;61204;49.980;8.358;2023-10-19T03:07:05;19.20;;;11.10;;
72275;SDS011;61204;49.980;8.358;2023-10-19T03:09:38;16.85;;;11.35;;
72275;SDS011;61204;49.980;8.358;2023-10-19T03:12:13;19.50;;;12.25;;
72275;SDS011;61204;49.980;8.358;2023-10-19T03:14:44;20.48;;;11.75;;
72275;SDS011;61204;49.980;8.358;2023-10-19T03:17:12;20.15;;;11.52;;
72275;SDS011;61204;49.980;8.358;2023-10-19T03:19:39;20.05;;;12.13;;
72275;SDS011;61204;49.980;8.358;2023-10-19T03:22:07;21.33;;;10.85;;
72275;SDS011;61204;49.980;8.358;2023-10-19T03:24:33;20.23;;;11.65;;
72275;SDS011;61204;49.980;8.358;2023-10-19T03:27:09;18.92;;;11.40;;
72275;SDS011;61204;49.980;8.358;2023-10-19T03:29:45;21.17;;;11.70;;
72275;SDS011;61204;49.980;8.358;2023-10-19T03:32:20;21.30;;;12.52;;
72275;SDS011;61204;49.980;8.358;2023-10-19T03:34:57;19.88;;;11.95;;
72275;SDS011;61204;49.980;8.358;2023-10-19T03:37:27;22.00;;;13.27;;
72275;SDS011;61204;49.980;8.358;2023-10-19T03:39:58;20.25;;;12.15;;
72275;SDS011;61204;49.980;8.358;2023-10-19T03:42:24;20.33;;;11.43;;
72275;SDS011;61204;49.980;8.358;2023-10-19T03:44:51;17.95;;;10.68;;
72275;SDS011;61204;49.980;8.358;2023-10-19T03:47:21;17.42;;;11.13;;
72275;SDS011;61204;49.980;8.358;2023-10-19T03:50:10;21.25;;;11.68;;
72275;SDS011;61204;49.980;8.358;2023-10-19T03:52:45;17.17;;;11.02;;
72275;SDS011;61204;49.980;8.358;2023-10-19T03:55:11;25.40;;;11.52;;
72275;SDS011;61204;49.980;8.358;2023-10-19T03:57:40;21.23;;;12.40;;
72275;SDS011;61204;49.980;8.358;2023-10-19T04:00:15;22.10;;;12.65;;
72275;SDS011;61204;49.980;8.358;2023-10-19T04:02:44;22.67;;;12.63;;
72275;SDS011;61204;49.980;8.358;2023-10-19T04:05:12;24.40;;;13.30;;
72275;SDS011;61204;49.980;8.358;2023-10-19T04:07:45;21.02;;;13.75;;
72275;SDS011;61204;49.980;8.358;2023-10-19T04:10:11;21.83;;;13.35;;
72275;SDS011;61204;49.980;8.358;2023-10-19T04:12:54;25.17;;;14.35;;
72275;SDS011;61204;49.980;8.358;2023-10-19T04:15:20;25.55;;;14.38;;
72275;SDS011;61204;49.980;8.358;2023-10-19T04:17:46;24.25;;;13.77;;
72275;SDS011;61204;49.980;8.358;2023-10-19T04:20:18;20.58;;;13.82;;
72275;SDS011;61204;49.980;8.358;2023-10-19T04:25:10;22.67;;;14.00;;
72275;SDS011;61204;49.980;8.358;2023-10-19T04:27:40;21.70;;;13.25;;
72275;SDS011;61204;49.980;8.358;2023-10-19T04:30:07;25.27;;;13.98;;
72275;SDS011;61204;49.980;8.358;2023-10-19T04:32:43;20.98;;;13.10;;
72275;SDS011;61204;49.980;8.358;2023-10-19T04:35:11;21.92;;;13.85;;
72275;SDS011;61204;49.980;8.358;2023-10-19T04:37:53;22.20;;;13.27;;
72275;SDS011;61204;49.980;8.358;2023-10-19T04:40:19;24.55;;;13.98;;
72275;SDS011;61204;49.980;8.358;2023-10-19T04:42:48;25.33;;;13.82;;
72275;SDS011;61204;49.980;8.358;2023-10-19T04:45:16;26.60;;;13.77;;
72275;SDS011;61204;49.980;8.358;2023-10-19T04:47:43;26.40;;;14.23;;
72275;SDS011;61204;49.980;8.358;2023-10-19T04:50:09;26.60;;;14.60;;
72275;SDS011;61204;49.980;8.358;2023-10-19T04:52:36;21.58;;;13.25;;
72275;SDS011;61204;49.980;8.358;2023-10-19T04:55:03;26.73;;;14.93;;
72275;SDS011;61204;49.980;8.358;2023-10-19T04:57:30;24.35;;;13.68;;
72275;SDS011;61204;49.980;8.358;2023-10-19T04:59:56;28.23;;;14.52;;
72275;SDS011;61204;49.980;8.358;2023-10-19T05:02:22;23.95;;;14.57;;
72275;SDS011;61204;49.980;8.358;2023-10-19T05:04:48;25.05;;;14.82;;
72275;SDS011;61204;49.980;8.358;2023-10-19T05:07:14;26.15;;;15.38;;
72275;SDS011;61204;49.980;8.358;2023-10-19T05:09:43;25.55;;;14.77;;
72275;SDS011;61204;49.980;8.358;2023-10-19T05:12:11;25.85;;;14.82;;
72275;SDS011;61204;49.980;8.358;2023-10-19T05:14:40;23.33;;;14.43;;
72275;SDS011;61204;49.980;8.358;2023-10-19T05:17:07;24.83;;;15.05;;
72275;SDS011;61204;49.980;8.358;2023-10-19T05:19:37;28.30;;;15.27;;
72275;SDS011;61204;49.980;8.358;2023-10-19T05:22:05;26.15;;;15.52;;
72275;SDS011;61204;49.980;8.358;2023-10-19T05:24:37;27.00;;;14.88;;
72275;SDS011;61204;49.980;8.358;2023-10-19T05:27:02;27.25;;;15.13;;
72275;SDS011;61204;49.980;8.358;2023-10-19T05:29:30;28.90;;;15.25;;
72275;SDS011;61204;49.980;8.358;2023-10-19T05:32:01;23.05;;;14.27;;
72275;SDS011;61204;49.980;8.358;2023-10-19T05:34:28;26.38;;;14.50;;
72275;SDS011;61204;49.980;8.358;2023-10-19T05:36:56;24.63;;;14.23;;
72275;SDS011;61204;49.980;8.358;2023-10-19T05:39:26;20.98;;;12.80;;
72275;SDS011;61204;49.980;8.358;2023-10-19T05:41:53;24.48;;;14.55;;
72275;SDS011;61204;49.980;8.358;2023-10-19T05:44:20;24.15;;;15.35;;
72275;SDS011;61204;49.980;8.358;2023-10-19T05:46:46;23.48;;;14.48;;
72275;SDS011;61204;49.980;8.358;2023-10-19T05:49:12;29.30;;;15.15;;
72275;SDS011;61204;49.980;8.358;2023-10-19T05:51:42;25.75;;;13.85;;
72275;SDS011;61204;49.980;8.358;2023-10-19T05:54:09;33.00;;;16.10;;
72275;SDS011;61204;49.980;8.358;2023-10-19T05:56:37;31.45;;;14.82;;
72275;SDS011;61204;49.980;8.358;2023-10-19T05:59:03;28.58;;;16.52;;
72275;SDS011;61204;49.980;8.358;2023-10-19T06:01:29;31.92;;;17.23;;
72275;SDS011;61204;49.980;8.358;2023-10-19T06:03:55;33.03;;;16.65;;
72275;SDS011;61204;49.980;8.358;2023-10-19T06:06:21;28.75;;;16.73;;
72275;SDS011;61204;49.980;8.358;2023-10-19T06:08:48;34.38;;;17.83;;
72275;SDS011;61204;49.980;8.358;2023-10-19T06:11:18;29.42;;;16.27;;
72275;SDS011;61204;49.980;8.358;2023-10-19T06:13:45;32.13;;;16.90;;
72275;SDS011;61204;49.980;8.358;2023-10-19T06:16:13;28.00;;;16.58;;
72275;SDS011;61204;49.980;8.358;2023-10-19T06:18:42;28.02;;;15.45;;
72275;SDS011;61204;49.980;8.358;2023-10-19T06:21:08;29.63;;;16.67;;
72275;SDS011;61204;49.980;8.358;2023-10-19T06:23:35;33.45;;;17.02;;
72275;SDS011;61204;49.980;8.358;2023-10-19T06:26:08;26.45;;;15.18;;
72275;SDS011;61204;49.980;8.358;2023-10-19T06:28:39;30.35;;;16.73;;
72275;SDS011;61204;49.980;8.358;2023-10-19T06:31:05;26.42;;;15.35;;
72275;SDS011;61204;49.980;8.358;2023-10-19T06:33:32;31.45;;;17.15;;
72275;SDS011;61204;49.980;8.358;2023-10-19T06:36:01;24.42;;;15.80;;
72275;SDS011;61204;49.980;8.358;2023-10-19T06:38:29;25.63;;;15.27;;
72275;SDS011;61204;49.980;8.358;2023-10-19T06:40:56;28.70;;;16.17;;
72275;SDS011;61204;49.980;8.358;2023-10-19T06:43:22;27.88;;;15.63;;
72275;SDS011;61204;49.980;8.358;2023-10-19T06:45:53;31.08;;;17.25;;
72275;SDS011;61204;49.980;8.358;2023-10-19T06:48:20;30.65;;;15.80;;
72275;SDS011;61204;49.980;8.358;2023-10-19T06:50:46;28.08;;;15.35;;
72275;SDS011;61204;49.980;8.358;2023-10-19T06:53:11;30.05;;;16.48;;
72275;SDS011;61204;49.980;8.358;2023-10-19T06:55:37;29.17;;;15.93;;
72275;SDS011;61204;49.980;8.358;2023-10-19T06:58:03;31.17;;;15.77;;
72275;SDS011;61204;49.980;8.358;2023-10-19T07:00:29;30.00;;;16.55;;
72275;SDS011;61204;49.980;8.358;2023-10-19T07:02:59;30.90;;;17.00;;
72275;SDS011;61204;49.980;8.358;2023-10-19T07:05:28;31.20;;;16.75;;
72275;SDS011;61204;49.980;8.358;2023-10-19T07:07:57;31.33;;;16.50;;
72275;SDS011;61204;49.980;8.358;2023-10-19T07:10:24;32.72;;;15.40;;
72275;SDS011;61204;49.980;8.358;2023-10-19T07:12:52;33.72;;;16.73;;
72275;SDS011;61204;49.980;8.358;2023-10-19T07:15:21;27.05;;;16.27;;
72275;SDS011;61204;49.980;8.358;2023-10-19T07:17:50;34.58;;;18.08;;
72275;SDS011;61204;49.980;8.358;2023-10-19T07:20:17;31.30;;;17.65;;
72275;SDS011;61204;49.980;8.358;2023-10-19T07:23:03;34.53;;;17.95;;
72275;SDS011;61204;49.980;8.358;2023-10-19T07:25:47;31.67;;;16.05;;
72275;SDS011;61204;49.980;8.358;2023-10-19T07:28:24;29.15;;;16.60;;
72275;SDS011;61204;49.980;8.358;2023-10-19T07:30:52;31.35;;;16.33;;
72275;SDS011;61204;49.980;8.358;2023-10-19T07:33:18;29.95;;;15.63;;
72275;SDS011;61204;49.980;8.358;2023-10-19T07:35:50;31.75;;;16.65;;
72275;SDS011;61204;49.980;8.358;2023-10-19T07:38:25;34.17;;;15.27;;
72275;SDS011;61204;49.980;8.358;2023-10-19T07:40:53;32.90;;;17.30;;
72275;SDS011;61204;49.980;8.358;2023-10-19T07:43:23;28.92;;;15.52;;
72275;SDS011;61204;49.980;8.358;2023-10-19T07:45:50;28.45;;;15.05;;
72275;SDS011;61204;49.980;8.358;2023-10-19T07:48:17;30.92;;;14.75;;
72275;SDS011;61204;49.980;8.358;2023-10-19T07:50:43;27.98;;;15.65;;
72275;SDS011;61204;49.980;8.358;2023-10-19T07:53:11;28.83;;;15.57;;
72275;SDS011;61204;49.980;8.358;2023-10-19T07:55:37;27.77;;;15.65;;
72275;SDS011;61204;49.980;8.358;2023-10-19T07:58:04;30.10;;;15.27;;
72275;SDS011;61204;49.980;8.358;2023-10-19T08:00:34;26.95;;;15.07;;
72275;SDS011;61204;49.980;8.358;2023-10-19T08:03:00;27.30;;;14.73;;
72275;SDS011;61204;49.980;8.358;2023-10-19T08:05:31;23.80;;;13.85;;
72275;SDS011;61204;49.980;8.358;2023-10-19T08:08:01;26.35;;;14.60;;
72275;SDS011;61204;49.980;8.358;2023-10-19T08:10:29;22.60;;;14.18;;
72275;SDS011;61204;49.980;8.358;2023-10-19T08:12:55;25.98;;;14.20;;
72275;SDS011;61204;49.980;8.358;2023-10-19T08:15:21;25.70;;;14.77;;
72275;SDS011;61204;49.980;8.358;2023-10-19T08:17:50;24.50;;;13.48;;
72275;SDS011;61204;49.980;8.358;2023-10-19T08:20:18;33.60;;;18.40;;
72275;SDS011;61204;49.980;8.358;2023-10-19T08:22:57;36.40;;;18.20;;
72275;SDS011;61204;49.980;8.358;2023-10-19T08:25:27;35.72;;;16.75;;
72275;SDS011;61204;49.980;8.358;2023-10-19T08:27:53;33.42;;;18.30;;
72275;SDS011;61204;49.980;8.358;2023-10-19T08:30:22;38.28;;;18.75;;
72275;SDS011;61204;49.980;8.358;2023-10-19T08:32:50;36.88;;;18.58;;
72275;SDS011;61204;49.980;8.358;2023-10-19T08:35:18;36.38;;;18.90;;
72275;SDS011;61204;49.980;8.358;2023-10-19T08:37:50;34.15;;;17.73;;
72275;SDS011;61204;49.980;8.358;2023-10-19T08:40:23;34.67;;;18.55;;
72275;SDS011;61204;49.980;8.358;2023-10-19T08:42:55;35.90;;;17.92;;
72275;SDS011;61204;49.980;8.358;2023-10-19T08:45:21;37.22;;;17.55;;
72275;SDS011;61204;49.980;8.358;2023-10-19T08:47:56;31.35;;;17.70;;
72275;SDS011;61204;49.980;8.358;2023-10-19T08:50:30;32.95;;;17.48;;
72275;SDS011;61204;49.980;8.358;2023-10-19T08:53:00;38.80;;;18.38;;
72275;SDS011;61204;49.980;8.358;2023-10-19T08:55:29;33.28;;;16.88;;
72275;SDS011;61204;49.980;8.358;2023-10-19T08:57:55;28.33;;;17.02;;
72275;SDS011;61204;49.980;8.358;2023-10-19T09:00:24;28.92;;;15.55;;
72275;SDS011;61204;49.980;8.358;2023-10-19T09:02:56;27.77;;;16.63;;
72275;SDS011;61204;49.980;8.358;2023-10-19T09:05:22;30.77;;;16.52;;
72275;SDS011;61204;49.980;8.358;2023-10-19T09:07:55;28.73;;;15.55;;
72275;SDS011;61204;49.980;8.358;2023-10-19T09:10:24;29.42;;;16.65;;
72275;SDS011;61204;49.980;8.358;2023-10-19T09:12:59;30.45;;;15.95;;
72275;SDS011;61204;49.980;8.358;2023-10-19T09:15:38;25.55;;;15.13;;
72275;SDS011;61204;49.980;8.358;2023-10-19T09:18:16;24.15;;;14.52;;
72275;SDS011;61204;49.980;8.358;2023-10-19T09:20:46;23.50;;;13.73;;
72275;SDS011;61204;49.980;8.358;2023-10-19T09:23:22;26.33;;;16.08;;
72275;SDS011;61204;49.980;8.358;2023-10-19T09:25:52;27.13;;;15.73;;
72275;SDS011;61204;49.980;8.358;2023-10-19T09:28:18;26.58;;;14.32;;
72275;SDS011;61204;49.980;8.358;2023-10-19T09:30:45;29.50;;;14.18;;
72275;SDS011;61204;49.980;8.358;2023-10-19T09:33:13;22.48;;;13.75;;
72275;SDS011;61204;49.980;8.358;2023-10-19T09:35:42;25.77;;;14.75;;
72275;SDS011;61204;49.980;8.358;2023-10-19T09:38:13;22.83;;;14.02;;
72275;SDS011;61204;49.980;8.358;2023-10-19T09:40:41;23.38;;;13.32;;
72275;SDS011;61204;49.980;8.358;2023-10-19T09:43:08;20.15;;;14.05;;
72275;SDS011;61204;49.980;8.358;2023-10-19T09:45:49;23.30;;;13.50;;
72275;SDS011;61204;49.980;8.358;2023-10-19T09:48:19;26.10;;;14.73;;
72275;SDS011;61204;49.980;8.358;2023-10-19T09:50:54;22.23;;;12.93;;
72275;SDS011;61204;49.980;8.358;2023-10-19T09:53:25;22.70;;;13.27;;
72275;SDS011;61204;49.980;8.358;2023-10-19T09:55:54;19.77;;;12.68;;
72275;SDS011;61204;49.980;8.358;2023-10-19T09:58:26;21.10;;;13.27;;
72275;SDS011;61204;49.980;8.358;2023-10-19T10:01:00;23.83;;;12.70;;
72275;SDS011;61204;49.980;8.358;2023-10-19T10:06:28;25.33;;;14.45;;
72275;SDS011;61204;49.980;8.358;2023-10-19T10:09:19;42.15;;;21.17;;
72275;SDS011;61204;49.980;8.358;2023-10-19T10:11:48;16.70;;;10.43;;
72275;SDS011;61204;49.980;8.358;2023-10-19T10:14:23;16.00;;;11.25;;
72275;SDS011;61204;49.980;8.358;2023-10-19T10:17:01;17.73;;;11.88;;
72275;SDS011;61204;49.980;8.358;2023-10-19T10:19:28;19.25;;;11.48;;
72275;SDS011;61204;49.980;8.358;2023-10-19T10:22:09;17.65;;;11.20;;
72275;SDS011;61204;49.980;8.358;2023-10-19T10:24:43;14.18;;;11.18;;
72275;SDS011;61204;49.980;8.358;2023-10-19T10:27:09;16.48;;;11.52;;
72275;SDS011;61204;49.980;8.358;2023-10-19T10:29:53;16.98;;;10.50;;
72275;SDS011;61204;49.980;8.358;2023-10-19T10:38:05;15.93;;;11.07;;
72275;SDS011;61204;49.980;8.358;2023-10-19T10:40:46;16.27;;;11.77;;
72275;SDS011;61204;49.980;8.358;2023-10-19T10:43:16;16.58;;;11.18;;
72275;SDS011;61204;49.980;8.358;2023-10-19T10:45:48;14.48;;;10.35;;
72275;SDS011;61204;49.980;8.358;2023-10-19T10:48:17;14.43;;;10.45;;
72275;SDS011;61204;49.980;8.358;2023-10-19T10:50:47;14.95;;;10.10;;
72275;SDS011;61204;49.980;8.358;2023-10-19T10:53:13;15.73;;;11.02;;
72275;SDS011;61204;49.980;8.358;2023-10-19T10:55:43;16.80;;;10.85;;
72275;SDS011;61204;49.980;8.358;2023-10-19T10:58:08;13.18;;;9.82;;
72275;SDS011;61204;49.980;8.358;2023-10-19T11:00:41;14.65;;;9.93;;
72275;SDS011;61204;49.980;8.358;2023-10-19T11:03:08;12.70;;;9.35;;
72275;SDS011;61204;49.980;8.358;2023-10-19T11:05:35;12.82;;;9.65;;
72275;SDS011;61204;49.980;8.358;2023-10-19T11:10:39;15.23;;;10.13;;
72275;SDS011;61204;49.980;8.358;2023-10-19T11:13:11;14.90;;;10.32;;
72275;SDS011;61204;49.980;8.358;2023-10-19T11:15:53;13.50;;;10.00;;
72275;SDS011;61204;49.980;8.358;2023-10-19T11:21:09;16.98;;;11.90;;
72275;SDS011;61204;49.980;8.358;2023-10-19T11:26:19;17.90;;;10.27;;
72275;SDS011;61204;49.980;8.358;2023-10-19T11:28:58;14.98;;;10.60;;
72275;SDS011;61204;49.980;8.358;2023-10-19T11:31:26;14.68;;;10.30;;
72275;SDS011;61204;49.980;8.358;2023-10-19T11:33:53;16.08;;;9.98;;
72275;SDS011;61204;49.980;8.358;2023-10-19T11:36:20;16.92;;;11.13;;
72275;SDS011;61204;49.980;8.358;2023-10-19T11:38:48;14.93;;;10.20;;
72275;SDS011;61204;49.980;8.358;2023-10-19T11:41:18;19.08;;;11.10;;
72275;SDS011;61204;49.980;8.358;2023-10-19T11:43:45;16.55;;;10.77;;
72275;SDS011;61204;49.980;8.358;2023-10-19T11:46:13;14.73;;;10.52;;
72275;SDS011;61204;49.980;8.358;2023-10-19T11:48:46;15.32;;;11.60;;
72275;SDS011;61204;49.980;8.358;2023-10-19T11:51:12;14.52;;;10.15;;
72275;SDS011;61204;49.980;8.358;2023-10-19T11:53:38;14.13;;;10.20;;
72275;SDS011;61204;49.980;8.358;2023-10-19T11:56:08;19.65;;;11.20;;
72275;SDS011;61204;49.980;8.358;2023-10-19T11:58:41;16.10;;;10.70;;
72275;SDS011;61204;49.980;8.358;2023-10-19T12:01:08;15.13;;;10.38;;
72275;SDS011;61204;49.980;8.358;2023-10-19T12:03:38;13.70;;;10.55;;
72275;SDS011;61204;49.980;8.358;2023-10-19T12:06:06;15.15;;;9.95;;
72275;SDS011;61204;49.980;8.358;2023-10-19T12:08:34;15.55;;;10.48;;
72275;SDS011;61204;49.980;8.358;2023-10-19T12:11:01;16.08;;;9.90;;
72275;SDS011;61204;49.980;8.358;2023-10-19T12:13:40;15.98;;;10.77;;
72275;SDS011;61204;49.980;8.358;2023-10-19T12:16:08;16.85;;;11.43;;
72275;SDS011;61204;49.980;8.358;2023-10-19T12:18:38;17.83;;;12.02;;
72275;SDS011;61204;49.980;8.358;2023-10-19T12:21:04;15.30;;;10.88;;
72275;SDS011;61204;49.980;8.358;2023-10-19T12:23:33;14.38;;;11.05;;
72275;SDS011;61204;49.980;8.358;2023-10-19T12:25:59;19.52;;;11.57;;
72275;SDS011;61204;49.980;8.358;2023-10-19T12:28:29;15.48;;;10.48;;
72275;SDS011;61204;49.980;8.358;2023-10-19T12:30:54;16.70;;;11.63;;
72275;SDS011;61204;49.980;8.358;2023-10-19T12:33:21;15.27;;;10.70;;
72275;SDS011;61204;49.980;8.358;2023-10-19T12:35:46;15.23;;;11.10;;
72275;SDS011;61204;49.980;8.358;2023-10-19T12:38:24;15.82;;;10.70;;
72275;SDS011;61204;49.980;8.358;2023-10-19T12:40:50;15.48;;;10.52;;
72275;SDS011;61204;49.980;8.358;2023-10-19T12:43:17;14.15;;;10.40;;
72275;SDS011;61204;49.980;8.358;2023-10-19T12:45:44;13.73;;;10.63;;
72275;SDS011;61204;49.980;8.358;2023-10-19T12:48:15;16.35;;;10.95;;
72275;SDS011;61204;49.980;8.358;2023-10-19T12:50:44;16.23;;;11.43;;
72275;SDS011;61204;49.980;8.358;2023-10-19T12:53:10;17.25;;;11.63;;
72275;SDS011;61204;49.980;8.358;2023-10-19T12:55:36;20.25;;;12.35;;
72275;SDS011;61204;49.980;8.358;2023-10-19T12:58:08;14.85;;;10.80;;
72275;SDS011;61204;49.980;8.358;2023-10-19T13:00:35;16.52;;;11.15;;
72275;SDS011;61204;49.980;8.358;2023-10-19T13:03:06;14.45;;;10.68;;
72275;SDS011;61204;49.980;8.358;2023-10-19T13:05:36;16.67;;;11.02;;
72275;SDS011;61204;49.980;8.358;2023-10-19T13:08:05;14.77;;;11.05;;
72275;SDS011;61204;49.980;8.358;2023-10-19T13:10:33;15.90;;;10.90;;
72275;SDS011;61204;49.980;8.358;2023-10-19T13:13:03;14.95;;;10.93;;
72275;SDS011;61204;49.980;8.358;2023-10-19T13:15:37;26.30;;;17.42;;
72275;SDS011;61204;49.980;8.358;2023-10-19T13:18:06;17.05;;;11.88;;
72275;SDS011;61204;49.980;8.358;2023-10-19T13:20:35;15.23;;;12.05;;
72275;SDS011;61204;49.980;8.358;2023-10-19T13:23:06;16.33;;;11.65;;
72275;SDS011;61204;49.980;8.358;2023-10-19T13:25:46;17.38;;;11.80;;
72275;SDS011;61204;49.980;8.358;2023-10-19T13:28:18;17.73;;;12.70;;
72275;SDS011;61204;49.980;8.358;2023-10-19T13:30:50;13.95;;;11.45;;
72275;SDS011;61204;49.980;8.358;2023-10-19T13:33:19;16.17;;;12.02;;
72275;SDS011;61204;49.980;8.358;2023-10-19T13:35:46;16.63;;;12.05;;
72275;SDS011;61204;49.980;8.358;2023-10-19T13:38:13;15.30;;;10.68;;
72275;SDS011;61204;49.980;8.358;2023-10-19T13:40:43;19.15;;;12.30;;
72275;SDS011;61204;49.980;8.358;2023-10-19T13:43:12;24.10;;;12.48;;
72275;SDS011;61204;49.980;8.358;2023-10-19T13:45:39;17.80;;;12.25;;
72275;SDS011;61204;49.980;8.358;2023-10-19T13:48:08;18.35;;;11.35;;
72275;SDS011;61204;49.980;8.358;2023-10-19T13:50:34;14.75;;;9.93;;
72275;SDS011;61204;49.980;8.358;2023-10-19T13:53:05;13.52;;;10.25;;
72275;SDS011;61204;49.980;8.358;2023-10-19T13:55:31;14.13;;;9.30;;
72275;SDS011;61204;49.980;8.358;2023-10-19T13:57:56;18.38;;;10.95;;
72275;SDS011;61204;49.980;8.358;2023-10-19T14:00:22;15.95;;;9.85;;
72275;SDS011;61204;49.980;8.358;2023-10-19T14:03:03;13.02;;;9.85;;
72275;SDS011;61204;49.980;8.358;2023-10-19T14:05:30;14.75;;;9.25;;
72275;SDS011;61204;49.980;8.358;2023-10-19T14:08:08;14.07;;;8.75;;
72275;SDS011;61204;49.980;8.358;2023-10-19T14:10:35;15.10;;;9.00;;
72275;SDS011;61204;49.980;8.358;2023-10-19T14:13:01;15.48;;;10.02;;
72275;SDS011;61204;49.980;8.358;2023-10-19T14:15:30;14.55;;;9.80;;
72275;SDS011;61204;49.980;8.358;2023-10-19T14:17:58;18.77;;;10.43;;
72275;SDS011;61204;49.980;8.358;2023-10-19T14:20:28;11.73;;;8.68;;
72275;SDS011;61204;49.980;8.358;2023-10-19T14:22:56;13.60;;;9.88;;
72275;SDS011;61204;49.980;8.358;2023-10-19T14:25:22;16.38;;;9.95;;
72275;SDS011;61204;49.980;8.358;2023-10-19T14:27:51;13.75;;;9.05;;
72275;SDS011;61204;49.980;8.358;2023-10-19T14:30:24;11.88;;;9.65;;
72275;SDS011;61204;49.980;8.358;2023-10-19T14:32:54;16.08;;;10.68;;
72275;SDS011;61204;49.980;8.358;2023-10-19T14:35:21;15.07;;;11.35;;
72275;SDS011;61204;49.980;8.358;2023-10-19T14:37:50;16.48;;;11.13;;
72275;SDS011;61204;49.980;8.358;2023-10-19T14:40:23;19.25;;;10.68;;
72275;SDS011;61204;49.980;8.358;2023-10-19T14:42:53;16.80;;;11.95;;
72275;SDS011;61204;49.980;8.358;2023-10-19T14:45:26;13.60;;;10.63;;
72275;SDS011;61204;49.980;8.358;2023-10-19T14:47:57;15.57;;;10.88;;
72275;SDS011;61204;49.980;8.358;2023-10-19T14:50:24;14.35;;;10.38;;
72275;SDS011;61204;49.980;8.358;2023-10-19T14:52:52;14.57;;;10.77;;
72275;SDS011;61204;49.980;8.358;2023-10-19T14:55:22;14.07;;;10.00;;
72275;SDS011;61204;49.980;8.358;2023-10-19T14:57:49;18.48;;;11.50;;
72275;SDS011;61204;49.980;8.358;2023-10-19T15:00:19;13.48;;;10.75;;
72275;SDS011;61204;49.980;8.358;2023-10-19T15:02:59;17.45;;;11.52;;
72275;SDS011;61204;49.980;8.358;2023-10-19T15:05:32;15.85;;;11.57;;